Time;durP1;ratioP1;P1;durP2;ratioP2;P2;SDS_P1;SDS_P2;PMS_P1;PMS_P2;Temp;Humidity;BMP_temperature;BMP_pressure;BME280_temperature;BME280_humidity;BME280_pressure;Samples;Min_cycle;Max_cycle;Signal;HPM_P1;HPM_P2
2023/02/23 00:01:19;;;;;;;19.48;14.75;;;;;;;;;;6287489;22;20183;-87
2023/02/23 00:03:49;;;;;;;17.73;15.50;;;;;;;;;;6262883;22;20018;-88
2023/02/23 00:06:17;;;;;;;19.55;16.73;;;;;;;;;;6303181;22;20055;-88
2023/02/23 00:08:51;;;;;;;18.85;14.98;;;;;;;;;;6289981;22;20063;-88
2023/02/23 00:11:22;;;;;;;21.40;17.50;;;;;;;;;;6288015;22;20087;-88
2023/02/23 00:13:50;;;;;;;22.65;17.67;;;;;;;;;;6288364;22;20012;-87
2023/02/23 00:16:22;;;;;;;19.58;17.05;;;;;;;;;;6290323;22;20010;-88
2023/02/23 00:18:52;;;;;;;22.05;17.65;;;;;;;;;;6289599;22;20022;-88
2023/02/23 00:21:23;;;;;;;26.88;18.73;;;;;;;;;;6301092;22;20003;-88
2023/02/23 00:23:54;;;;;;;22.35;17.40;;;;;;;;;;6281616;22;20014;-87
2023/02/23 00:26:24;;;;;;;25.17;16.35;;;;;;;;;;6252212;22;20016;-87
2023/02/23 00:28:53;;;;;;;22.60;16.75;;;;;;;;;;6276259;22;20012;-88
2023/02/23 00:31:24;;;;;;;20.65;15.50;;;;;;;;;;6273296;22;20020;-88
2023/02/23 00:33:53;;;;;;;22.88;16.40;;;;;;;;;;6284466;22;20019;-88
2023/02/23 00:36:21;;;;;;;18.15;14.93;;;;;;;;;;6273863;22;20023;-87
2023/02/23 00:38:52;;;;;;;17.90;15.80;;;;;;;;;;6274171;22;20011;-87
2023/02/23 00:41:24;;;;;;;23.80;18.20;;;;;;;;;;6284191;22;20030;-88
2023/02/23 00:43:53;;;;;;;18.48;16.45;;;;;;;;;;6247770;22;20347;-88
2023/02/23 00:46:22;;;;;;;18.27;15.88;;;;;;;;;;6273789;22;20440;-88
2023/02/23 00:48:51;;;;;;;21.70;14.98;;;;;;;;;;6247358;22;20035;-88
2023/02/23 00:51:19;;;;;;;19.38;15.25;;;;;;;;;;6222336;22;20020;-88
2023/02/23 00:53:46;;;;;;;18.15;15.07;;;;;;;;;;6283971;22;20012;-87
2023/02/23 00:56:16;;;;;;;18.48;15.95;;;;;;;;;;6274118;22;20339;-87
2023/02/23 00:58:46;;;;;;;22.40;15.05;;;;;;;;;;6248086;22;20012;-87
2023/02/23 01:01:15;;;;;;;22.13;16.15;;;;;;;;;;6247275;22;20011;-88
2023/02/23 01:03:43;;;;;;;19.02;16.08;;;;;;;;;;6276264;22;20074;-88
2023/02/23 01:06:12;;;;;;;19.30;15.63;;;;;;;;;;6222986;22;20016;-88
2023/02/23 01:08:42;;;;;;;19.17;14.93;;;;;;;;;;6249310;22;20016;-87
2023/02/23 01:11:16;;;;;;;22.05;17.23;;;;;;;;;;6279015;22;20012;-87
2023/02/23 01:13:46;;;;;;;17.95;14.75;;;;;;;;;;6284013;22;20081;-88
2023/02/23 01:16:16;;;;;;;20.33;15.88;;;;;;;;;;6274194;22;20379;-88
2023/02/23 01:18:44;;;;;;;22.30;16.92;;;;;;;;;;6311853;22;20022;-88
2023/02/23 01:21:16;;;;;;;19.50;15.90;;;;;;;;;;6272607;22;20012;-86
2023/02/23 01:23:43;;;;;;;20.23;16.02;;;;;;;;;;6300679;22;20022;-85
2023/02/23 01:26:17;;;;;;;20.83;16.27;;;;;;;;;;6275455;22;20015;-86
2023/02/23 01:28:48;;;;;;;22.55;15.98;;;;;;;;;;6265066;22;20011;-85
2023/02/23 01:31:21;;;;;;;29.42;15.13;;;;;;;;;;6283193;22;20018;-85
2023/02/23 01:33:51;;;;;;;20.75;17.17;;;;;;;;;;6276734;22;20018;-85
2023/02/23 01:36:18;;;;;;;23.45;16.67;;;;;;;;;;6250974;22;20012;-86
2023/02/23 01:38:48;;;;;;;25.17;15.10;;;;;;;;;;6257764;22;20011;-85
2023/02/23 01:41:16;;;;;;;24.25;18.70;;;;;;;;;;6266143;22;20016;-86
2023/02/23 01:44:03;;;;;;;22.77;16.95;;;;;;;;;;6249151;22;20023;-86
2023/02/23 01:46:38;;;;;;;21.48;16.95;;;;;;;;;;6277371;22;20019;-86
2023/02/23 01:49:06;;;;;;;23.88;16.58;;;;;;;;;;6247591;22;20027;-85
2023/02/23 01:51:36;;;;;;;23.98;17.60;;;;;;;;;;6221956;22;20479;-85
2023/02/23 01:54:09;;;;;;;19.73;16.42;;;;;;;;;;6285037;22;20019;-86
2023/02/23 01:56:42;;;;;;;22.92;16.60;;;;;;;;;;6276981;22;20011;-85
2023/02/23 01:59:14;;;;;;;21.23;18.17;;;;;;;;;;6246708;22;20463;-86
2023/02/23 02:01:47;;;;;;;26.33;18.80;;;;;;;;;;6284881;22;20034;-85
2023/02/23 02:04:18;;;;;;;20.85;15.45;;;;;;;;;;6272546;22;20072;-85
2023/02/23 02:06:47;;;;;;;21.40;16.95;;;;;;;;;;6248011;22;20467;-85
2023/02/23 02:09:16;;;;;;;20.42;16.67;;;;;;;;;;6247320;22;20011;-85
2023/02/23 02:11:45;;;;;;;22.60;17.08;;;;;;;;;;6245072;22;20023;-85
2023/02/23 02:14:15;;;;;;;18.92;16.52;;;;;;;;;;6221128;22;20039;-86
2023/02/23 02:17:01;;;;;;;21.95;17.40;;;;;;;;;;6276717;22;20038;-86
2023/02/23 02:20:13;;;;;;;26.20;18.33;;;;;;;;;;6223485;22;20022;-86
2023/02/23 02:23:19;;;;;;;18.17;16.25;;;;;;;;;;6255458;22;20027;-85
2023/02/23 02:25:57;;;;;;;23.13;20.35;;;;;;;;;;6165676;22;20032;-86
2023/02/23 02:28:51;;;;;;;21.95;18.95;;;;;;;;;;6283816;22;20015;-85
2023/02/23 02:31:44;;;;;;;25.05;19.52;;;;;;;;;;6282512;22;20015;-85
2023/02/23 02:34:45;;;;;;;17.67;15.43;;;;;;;;;;6283846;22;20359;-86
2023/02/23 02:37:22;;;;;;;22.67;18.25;;;;;;;;;;6220626;22;20034;-86
2023/02/23 02:40:14;;;;;;;32.03;20.30;;;;;;;;;;6221509;22;20019;-86
2023/02/23 02:42:55;;;;;;;26.48;18.85;;;;;;;;;;6282006;22;20023;-86
2023/02/23 02:45:27;;;;;;;24.88;19.02;;;;;;;;;;6279052;22;20034;-86
2023/02/23 02:47:58;;;;;;;26.30;19.58;;;;;;;;;;6246315;22;20016;-85
2023/02/23 02:50:33;;;;;;;25.33;18.65;;;;;;;;;;6282439;22;20015;-86
2023/02/23 02:53:05;;;;;;;22.17;19.60;;;;;;;;;;6282680;22;20348;-86
2023/02/23 02:55:36;;;;;;;20.17;17.83;;;;;;;;;;6246069;22;20027;-85
2023/02/23 02:58:06;;;;;;;23.33;18.95;;;;;;;;;;6240469;23;20027;-86
2023/02/23 04:18:54;;;;;;;28.40;21.42;;;;;;;;;;6242922;23;20036;-88
2023/02/23 04:21:22;;;;;;;23.00;20.30;;;;;;;;;;6241375;23;20023;-87
2023/02/23 04:23:49;;;;;;;21.40;19.17;;;;;;;;;;6214968;23;20012;-88
2023/02/23 04:26:16;;;;;;;24.75;19.33;;;;;;;;;;6214363;23;20371;-88
2023/02/23 04:28:44;;;;;;;24.25;20.77;;;;;;;;;;6242782;23;20352;-87
2023/02/23 04:31:11;;;;;;;25.00;19.80;;;;;;;;;;6215034;22;20016;-88
2023/02/23 04:33:40;;;;;;;26.58;22.60;;;;;;;;;;6244955;23;20012;-88
2023/02/23 04:36:07;;;;;;;27.98;18.70;;;;;;;;;;6243097;23;20012;-87
2023/02/23 04:38:35;;;;;;;22.98;18.60;;;;;;;;;;6245246;23;20016;-87
2023/02/23 04:41:02;;;;;;;26.48;19.48;;;;;;;;;;6217534;23;20421;-87
2023/02/23 04:43:29;;;;;;;25.27;18.80;;;;;;;;;;6242849;23;20016;-86
2023/02/23 04:45:57;;;;;;;27.63;19.42;;;;;;;;;;6241199;23;20360;-86
2023/02/23 04:48:25;;;;;;;24.25;21.60;;;;;;;;;;6191869;23;20027;-86
2023/02/23 04:50:54;;;;;;;23.30;19.25;;;;;;;;;;6243437;23;20479;-87
2023/02/23 04:53:21;;;;;;;20.58;17.85;;;;;;;;;;6242193;23;20023;-86
2023/02/23 04:55:49;;;;;;;28.05;19.08;;;;;;;;;;6243446;23;20012;-87
2023/02/23 04:58:16;;;;;;;22.38;19.23;;;;;;;;;;6216467;23;20016;-86
2023/02/23 05:00:44;;;;;;;24.35;20.92;;;;;;;;;;6242120;23;20028;-87
2023/02/23 05:03:11;;;;;;;22.88;18.95;;;;;;;;;;6215335;23;20012;-87
2023/02/23 05:05:39;;;;;;;26.13;20.83;;;;;;;;;;6216376;23;20016;-87
2023/02/23 05:08:10;;;;;;;23.10;19.95;;;;;;;;;;6216363;23;20024;-87
2023/02/23 05:10:37;;;;;;;23.05;20.55;;;;;;;;;;6192822;23;20472;-87
2023/02/23 05:13:05;;;;;;;24.33;20.13;;;;;;;;;;6215211;23;20020;-88
2023/02/23 05:15:32;;;;;;;25.60;21.73;;;;;;;;;;6243723;23;20035;-88
2023/02/23 05:17:59;;;;;;;24.15;21.05;;;;;;;;;;6240891;23;20348;-89
2023/02/23 05:20:27;;;;;;;23.45;20.15;;;;;;;;;;6244065;23;20340;-88
2023/02/23 05:22:54;;;;;;;25.02;19.10;;;;;;;;;;6242913;23;20019;-89
2023/02/23 05:25:23;;;;;;;28.88;21.30;;;;;;;;;;6243117;23;20035;-87
2023/02/23 05:27:50;;;;;;;23.50;19.27;;;;;;;;;;6215629;23;20016;-89
2023/02/23 05:33:00;;;;;;;27.23;21.55;;;;;;;;;;6210342;23;20016;-89
2023/02/23 05:35:27;;;;;;;28.15;22.13;;;;;;;;;;6244934;23;20329;-88
2023/02/23 05:37:55;;;;;;;33.15;25.30;;;;;;;;;;6236535;23;20020;-88
2023/02/23 05:40:24;;;;;;;29.17;21.55;;;;;;;;;;6208867;23;20024;-88
2023/02/23 05:42:51;;;;;;;28.30;22.05;;;;;;;;;;6209133;23;20329;-88
2023/02/23 05:45:19;;;;;;;29.52;22.50;;;;;;;;;;6235720;23;20031;-89
2023/02/23 05:47:46;;;;;;;34.13;24.20;;;;;;;;;;6234469;23;20016;-88
2023/02/23 05:50:13;;;;;;;28.15;23.80;;;;;;;;;;6208612;23;20453;-89
2023/02/23 05:52:41;;;;;;;33.00;26.92;;;;;;;;;;6237296;23;20020;-88
2023/02/23 05:55:10;;;;;;;28.92;25.38;;;;;;;;;;6236458;23;20023;-88
2023/02/23 05:57:41;;;;;;;39.35;28.60;;;;;;;;;;6236263;23;20016;-89
2023/02/23 06:00:12;;;;;;;38.10;25.98;;;;;;;;;;6209314;23;20379;-90
2023/02/23 06:02:40;;;;;;;38.90;27.98;;;;;;;;;;6236310;23;20012;-89
2023/02/23 06:05:08;;;;;;;40.15;27.63;;;;;;;;;;6246369;23;20321;-88
2023/02/23 06:07:36;;;;;;;35.33;27.42;;;;;;;;;;6210338;23;20354;-89
2023/02/23 06:10:04;;;;;;;36.50;26.08;;;;;;;;;;6234573;23;20031;-88
2023/02/23 06:12:32;;;;;;;44.97;29.25;;;;;;;;;;6245860;23;20020;-89
2023/02/23 06:15:00;;;;;;;44.00;25.33;;;;;;;;;;6235169;23;20378;-89
2023/02/23 06:17:28;;;;;;;36.70;28.80;;;;;;;;;;6236623;23;20012;-89
2023/02/23 06:19:55;;;;;;;33.67;24.95;;;;;;;;;;6234623;23;20123;-89
2023/02/23 06:22:22;;;;;;;34.90;25.40;;;;;;;;;;6183863;23;20016;-89
2023/02/23 06:24:50;;;;;;;34.08;25.10;;;;;;;;;;6236590;23;20023;-89
2023/02/23 06:27:17;;;;;;;36.67;26.50;;;;;;;;;;6239493;23;20027;-89
2023/02/23 06:29:44;;;;;;;39.75;29.00;;;;;;;;;;6236187;23;20015;-89
2023/02/23 06:32:13;;;;;;;30.55;22.90;;;;;;;;;;6209099;23;20020;-89
2023/02/23 06:34:46;;;;;;;34.22;25.17;;;;;;;;;;6218273;23;20023;-90
2023/02/23 06:37:14;;;;;;;38.63;26.67;;;;;;;;;;6210297;23;20012;-89
2023/02/23 06:39:41;;;;;;;37.20;25.73;;;;;;;;;;6234759;23;20031;-88
2023/02/23 06:42:09;;;;;;;34.67;26.52;;;;;;;;;;6233437;23;20012;-89
2023/02/23 06:44:36;;;;;;;44.78;27.80;;;;;;;;;;6233679;23;20027;-89
2023/02/23 09:03:27;;;;;;;17.90;14.48;;;;;;;;;;6196202;23;20020;-88
2023/02/23 09:05:58;;;;;;;18.50;14.15;;;;;;;;;;6222058;23;20019;-90
2023/02/23 09:08:28;;;;;;;17.50;13.43;;;;;;;;;;6221633;23;20016;-89
2023/02/23 09:10:56;;;;;;;20.83;14.82;;;;;;;;;;6196463;23;20024;-88
2023/02/23 09:13:23;;;;;;;20.20;12.75;;;;;;;;;;6221520;23;20027;-88
2023/02/23 09:15:51;;;;;;;19.60;14.05;;;;;;;;;;6221896;23;20016;-90
2023/02/23 09:18:22;;;;;;;21.77;14.52;;;;;;;;;;6222382;23;20027;-91
2023/02/23 09:20:51;;;;;;;19.30;14.02;;;;;;;;;;6196150;23;20020;-90
2023/02/23 09:23:19;;;;;;;17.77;12.27;;;;;;;;;;6171071;23;20016;-90
2023/02/23 09:25:50;;;;;;;17.75;13.73;;;;;;;;;;6221899;23;20020;-89
2023/02/23 09:28:29;;;;;;;17.90;13.13;;;;;;;;;;6220106;23;20016;-91
2023/02/23 09:31:05;;;;;;;18.92;13.40;;;;;;;;;;6219165;23;20023;-88
2023/02/23 09:33:38;;;;;;;15.63;12.05;;;;;;;;;;6245702;23;20008;-90
2023/02/23 09:36:15;;;;;;;16.40;12.52;;;;;;;;;;6200565;23;20027;-90
2023/02/23 09:38:42;;;;;;;22.45;11.85;;;;;;;;;;6233402;23;20008;-89
2023/02/23 09:41:36;;;;;;;17.08;12.55;;;;;;;;;;6213339;22;20024;-89
2023/02/23 09:44:12;;;;;;;18.77;13.57;;;;;;;;;;6246279;22;20064;-91
2023/02/23 09:46:45;;;;;;;17.25;12.98;;;;;;;;;;6223014;23;20027;-91
2023/02/23 09:49:21;;;;;;;16.08;11.93;;;;;;;;;;6221134;23;20019;-91
2023/02/23 09:51:56;;;;;;;17.55;10.82;;;;;;;;;;6195234;23;20028;-90
2023/02/23 09:54:25;;;;;;;13.68;10.45;;;;;;;;;;6196531;23;20012;-91
2023/02/23 09:56:57;;;;;;;15.23;11.05;;;;;;;;;;6220504;23;20020;-92
2023/02/23 09:59:27;;;;;;;15.48;10.25;;;;;;;;;;6194213;23;20022;-92
2023/02/23 10:02:00;;;;;;;16.60;11.57;;;;;;;;;;6220268;23;20012;-89
2023/02/23 10:04:30;;;;;;;14.90;10.40;;;;;;;;;;6221313;23;20023;-91
2023/02/23 10:07:04;;;;;;;15.25;11.70;;;;;;;;;;6222844;23;20020;-89
2023/02/23 10:09:44;;;;;;;18.10;10.02;;;;;;;;;;6248994;23;20047;-90
2023/02/23 10:12:19;;;;;;;10.70;8.75;;;;;;;;;;6260267;23;20016;-89
2023/02/23 10:15:09;;;;;;;8.70;6.57;;;;;;;;;;6223822;23;20020;-90
2023/02/23 10:17:44;;;;;;;14.52;8.07;;;;;;;;;;6175142;23;20017;-90
2023/02/23 10:20:22;;;;;;;10.80;8.00;;;;;;;;;;6195579;23;20016;-88
2023/02/23 10:22:52;;;;;;;12.05;8.50;;;;;;;;;;6231891;23;20018;-89
2023/02/23 10:25:23;;;;;;;10.38;8.23;;;;;;;;;;6222992;23;20259;-89
2023/02/23 10:27:52;;;;;;;9.07;7.90;;;;;;;;;;6249596;23;20046;-88
2023/02/23 10:30:22;;;;;;;10.73;7.65;;;;;;;;;;6232680;23;20016;-90
2023/02/23 10:32:54;;;;;;;13.30;8.18;;;;;;;;;;6196825;23;20022;-90
2023/02/23 10:35:22;;;;;;;11.18;7.05;;;;;;;;;;6221484;23;20020;-90
2023/02/23 10:37:52;;;;;;;15.43;7.47;;;;;;;;;;6220647;23;20019;-89
2023/02/23 10:40:26;;;;;;;10.88;7.03;;;;;;;;;;6255177;23;20027;-90
2023/02/23 10:42:57;;;;;;;10.18;6.55;;;;;;;;;;6257262;23;20012;-90
2023/02/23 10:45:30;;;;;;;13.45;7.50;;;;;;;;;;6220318;23;20463;-88
2023/02/23 10:48:02;;;;;;;10.60;8.35;;;;;;;;;;6196255;23;20022;-89
2023/02/23 10:50:37;;;;;;;8.80;6.20;;;;;;;;;;6197446;23;20016;-90
2023/02/23 10:53:15;;;;;;;10.80;7.10;;;;;;;;;;6196122;23;20024;-90
2023/02/23 10:55:44;;;;;;;8.60;6.75;;;;;;;;;;6220770;23;20024;-88
2023/02/23 10:58:23;;;;;;;7.82;6.38;;;;;;;;;;6195838;23;20455;-91
2023/02/23 11:00:53;;;;;;;10.25;6.68;;;;;;;;;;6218620;23;20023;-89
2023/02/23 11:03:29;;;;;;;8.95;6.57;;;;;;;;;;6216820;23;20028;-89
2023/02/23 11:05:59;;;;;;;14.70;7.28;;;;;;;;;;6227271;23;20015;-88
2023/02/23 11:08:31;;;;;;;8.20;5.30;;;;;;;;;;6217671;23;20027;-90
2023/02/23 11:11:08;;;;;;;10.83;5.73;;;;;;;;;;6218461;23;20016;-89
2023/02/23 11:13:45;;;;;;;12.40;6.03;;;;;;;;;;6217488;23;20012;-89
2023/02/23 11:16:23;;;;;;;8.75;6.22;;;;;;;;;;6218707;23;20020;-92
2023/02/23 11:18:56;;;;;;;9.50;5.70;;;;;;;;;;6194727;23;20020;-91
2023/02/23 11:21:32;;;;;;;8.77;5.22;;;;;;;;;;6197040;23;20505;-89
2023/02/23 11:24:13;;;;;;;7.15;5.53;;;;;;;;;;6199449;23;20024;-90
2023/02/23 11:26:42;;;;;;;6.95;5.28;;;;;;;;;;6232842;23;20020;-89
2023/02/23 11:29:15;;;;;;;7.53;5.15;;;;;;;;;;6219784;23;20019;-90
2023/02/23 11:31:50;;;;;;;10.55;5.75;;;;;;;;;;6219655;23;20016;-91
2023/02/23 11:34:24;;;;;;;9.00;4.07;;;;;;;;;;6198232;23;20023;-90
2023/02/23 11:37:02;;;;;;;13.02;4.60;;;;;;;;;;6195811;23;20024;-90
2023/02/23 11:39:32;;;;;;;7.50;4.45;;;;;;;;;;6195526;23;20016;-90
2023/02/23 11:42:24;;;;;;;6.60;4.55;;;;;;;;;;6198689;23;20020;-89
2023/02/23 11:45:03;;;;;;;9.85;5.20;;;;;;;;;;6230296;23;20024;-90
2023/02/23 11:47:39;;;;;;;8.75;5.30;;;;;;;;;;6228967;23;20018;-90
2023/02/23 11:50:21;;;;;;;9.50;5.57;;;;;;;;;;6199604;23;20024;-91
2023/02/23 11:53:01;;;;;;;8.77;5.13;;;;;;;;;;6197450;23;20527;-90
2023/02/23 11:55:33;;;;;;;9.77;4.38;;;;;;;;;;6198244;23;20039;-89
2023/02/23 11:58:19;;;;;;;8.13;5.13;;;;;;;;;;6196861;23;20023;-89
2023/02/23 12:00:55;;;;;;;8.68;5.25;;;;;;;;;;6224747;23;20023;-88
2023/02/23 12:03:26;;;;;;;7.22;4.65;;;;;;;;;;6173220;23;20016;-90
2023/02/23 12:05:58;;;;;;;9.18;5.15;;;;;;;;;;6223091;23;20471;-89
2023/02/23 12:08:37;;;;;;;9.25;4.57;;;;;;;;;;6198301;23;20489;-91
2023/02/23 12:11:11;;;;;;;6.30;4.95;;;;;;;;;;6223681;23;20027;-88
2023/02/23 12:13:56;;;;;;;10.00;4.35;;;;;;;;;;6258714;23;20016;-90
2023/02/23 12:16:51;;;;;;;7.18;4.78;;;;;;;;;;6231889;23;20023;-90
2023/02/23 12:19:25;;;;;;;7.50;5.38;;;;;;;;;;6222480;22;20102;-89
2023/02/23 12:22:10;;;;;;;9.13;4.68;;;;;;;;;;6246486;22;20067;-90
2023/02/23 12:24:43;;;;;;;7.93;4.75;;;;;;;;;;6248231;22;20056;-89
2023/02/23 12:27:15;;;;;;;10.00;5.03;;;;;;;;;;6247884;22;20060;-88
2023/02/23 12:30:00;;;;;;;13.10;6.38;;;;;;;;;;6205059;23;20031;-90
2023/02/23 12:32:42;;;;;;;10.00;6.07;;;;;;;;;;6225585;23;20016;-89
2023/02/23 12:35:16;;;;;;;11.13;5.18;;;;;;;;;;6223414;23;20024;-89
2023/02/23 12:37:47;;;;;;;8.82;5.07;;;;;;;;;;6231227;23;20016;-90
2023/02/23 12:40:16;;;;;;;6.57;3.78;;;;;;;;;;6195608;23;20016;-90
2023/02/23 12:42:54;;;;;;;13.98;4.38;;;;;;;;;;6232386;23;20012;-90
2023/02/23 12:45:29;;;;;;;7.40;2.92;;;;;;;;;;6220075;23;20023;-89
2023/02/23 12:48:05;;;;;;;5.82;3.95;;;;;;;;;;6219815;23;20355;-90
2023/02/23 12:50:52;;;;;;;9.95;5.95;;;;;;;;;;6218299;23;20020;-88
2023/02/23 12:53:26;;;;;;;8.95;6.25;;;;;;;;;;6221602;23;20039;-89
2023/02/23 12:56:05;;;;;;;10.77;7.68;;;;;;;;;;6196332;23;20351;-88
2023/02/23 12:58:48;;;;;;;17.42;6.93;;;;;;;;;;6222634;23;20208;-92
2023/02/23 13:01:23;;;;;;;9.67;6.00;;;;;;;;;;6222139;23;20024;-92
2023/02/23 13:04:32;;;;;;;9.48;5.65;;;;;;;;;;6198745;23;20258;-89
2023/02/23 13:07:06;;;;;;;11.88;5.68;;;;;;;;;;6196275;23;20020;-90
2023/02/23 13:09:49;;;;;;;7.05;5.35;;;;;;;;;;6251649;23;20016;-92
2023/02/23 13:12:45;;;;;;;16.60;5.18;;;;;;;;;;6202661;23;20020;-89
2023/02/23 13:15:22;;;;;;;8.35;5.45;;;;;;;;;;6195722;23;20024;-91
2023/02/23 13:17:56;;;;;;;9.50;5.72;;;;;;;;;;6197666;23;20012;-90
2023/02/23 13:20:32;;;;;;;7.25;5.28;;;;;;;;;;6189361;23;20031;-90
2023/02/23 13:23:30;;;;;;;8.93;5.55;;;;;;;;;;6220488;23;20020;-90
2023/02/23 13:26:10;;;;;;;5.68;4.95;;;;;;;;;;6256919;23;20023;-90
2023/02/23 13:28:49;;;;;;;10.15;5.00;;;;;;;;;;6200902;23;20026;-91
2023/02/23 13:31:24;;;;;;;8.48;4.45;;;;;;;;;;6196282;23;20019;-89
2023/02/23 13:33:59;;;;;;;8.45;5.15;;;;;;;;;;6247471;23;20008;-89
2023/02/23 13:36:29;;;;;;;12.55;6.47;;;;;;;;;;6196435;23;20019;-89
2023/02/23 13:39:24;;;;;;;8.98;7.25;;;;;;;;;;6195915;23;20012;-89
2023/02/23 13:42:07;;;;;;;11.47;9.33;;;;;;;;;;6194284;23;20027;-90
2023/02/23 13:44:37;;;;;;;9.50;7.57;;;;;;;;;;6196496;23;20027;-90
2023/02/23 13:47:16;;;;;;;12.50;9.27;;;;;;;;;;6196679;23;20024;-90
2023/02/23 13:49:49;;;;;;;12.52;9.55;;;;;;;;;;6197239;23;20016;-89
2023/02/23 13:52:24;;;;;;;14.65;8.80;;;;;;;;;;6219108;23;20090;-89
2023/02/23 13:54:57;;;;;;;14.35;9.57;;;;;;;;;;6196344;23;20024;-89
2023/02/23 13:57:25;;;;;;;;;;;;;;;;;;6195503;23;20024;-91
2023/02/23 13:59:59;;;;;;;11.52;8.65;;;;;;;;;;6256790;23;19959;-89
2023/02/23 14:02:37;;;;;;;13.00;8.10;;;;;;;;;;6193807;23;20016;-89
2023/02/23 14:05:13;;;;;;;13.88;9.80;;;;;;;;;;6196184;23;20496;-90
2023/02/23 14:07:45;;;;;;;13.85;8.32;;;;;;;;;;6195653;23;20016;-89
2023/02/23 14:10:18;;;;;;;9.05;7.75;;;;;;;;;;6220460;23;20023;-88
2023/02/23 14:13:04;;;;;;;16.17;8.90;;;;;;;;;;6219766;23;20028;-90
2023/02/23 14:15:43;;;;;;;10.82;8.20;;;;;;;;;;6195574;23;20259;-88
2023/02/23 14:18:45;;;;;;;13.50;9.48;;;;;;;;;;6217520;23;20023;-90
2023/02/23 14:21:24;;;;;;;8.70;7.57;;;;;;;;;;6193632;23;20024;-88
2023/02/23 14:24:04;;;;;;;12.85;9.90;;;;;;;;;;6217829;23;20027;-89
2023/02/23 14:26:46;;;;;;;11.32;9.45;;;;;;;;;;6228020;23;20020;-90
2023/02/23 14:29:24;;;;;;;13.90;10.57;;;;;;;;;;6231519;23;20020;-89
2023/02/23 14:31:59;;;;;;;13.50;10.27;;;;;;;;;;6248751;23;20020;-91
2023/02/23 14:34:48;;;;;;;11.85;9.63;;;;;;;;;;6220823;23;20034;-88
2023/02/23 14:37:25;;;;;;;12.20;9.32;;;;;;;;;;6220947;23;20038;-89
2023/02/23 14:39:57;;;;;;;15.88;9.70;;;;;;;;;;6197019;23;20034;-89
2023/02/23 14:42:25;;;;;;;15.95;11.15;;;;;;;;;;6219882;23;20020;-90
2023/02/23 14:44:54;;;;;;;15.50;11.95;;;;;;;;;;6221287;23;20023;-89
2023/02/23 14:47:27;;;;;;;10.90;9.80;;;;;;;;;;6194830;23;20016;-89
2023/02/23 14:49:57;;;;;;;13.60;11.18;;;;;;;;;;6170842;23;20020;-90
2023/02/23 14:52:27;;;;;;;14.23;10.63;;;;;;;;;;6221736;23;20074;-87
2023/02/23 14:55:08;;;;;;;17.05;11.13;;;;;;;;;;6223160;23;20348;-89
2023/02/23 16:28:44;;;;;;;11.35;6.45;;;;;;;;;;6184585;23;20017;-89
2023/02/23 16:31:13;;;;;;;9.60;6.85;;;;;;;;;;6156561;23;20017;-90
2023/02/23 16:33:43;;;;;;;10.75;7.28;;;;;;;;;;6155554;23;20021;-90
2023/02/23 16:36:15;;;;;;;10.55;7.70;;;;;;;;;;6184056;23;20013;-90
2023/02/23 16:38:49;;;;;;;13.55;6.80;;;;;;;;;;6192312;23;20016;-90
2023/02/23 16:41:20;;;;;;;11.90;8.25;;;;;;;;;;6192640;23;20017;-90
2023/02/23 16:43:52;;;;;;;10.40;7.45;;;;;;;;;;6157772;23;20021;-90
2023/02/23 16:46:20;;;;;;;9.98;6.30;;;;;;;;;;6180344;23;20024;-91
2023/02/23 16:48:47;;;;;;;9.85;7.30;;;;;;;;;;6156533;23;20041;-90
2023/02/23 16:51:16;;;;;;;10.68;7.32;;;;;;;;;;6156549;23;20025;-91
2023/02/23 16:53:44;;;;;;;8.10;5.75;;;;;;;;;;6194657;23;20017;-90
2023/02/23 16:56:13;;;;;;;10.02;7.72;;;;;;;;;;6157598;23;20013;-90
2023/02/23 16:59:27;;;;;;;;;;;;;;;;;;;;;
2023/02/23 17:02:54;;;;;;;9.82;6.25;;;;;;;;;;6148863;23;20021;-91
2023/02/23 17:09:54;;;;;;;;;;;;;;;;;;;;;
2023/02/23 17:24:01;;;;;;;7.88;5.65;;;;;;;;;;5903816;24;20029;-90
2023/02/23 17:26:44;;;;;;;;;;;;;;;;;;;;;
2023/02/23 17:34:51;;;;;;;;;;;;;;;;;;;;;
2023/02/23 17:49:31;;;;;;;11.18;5.68;;;;;;;;;;6108165;23;20028;-92
2023/02/23 17:52:01;;;;;;;9.00;6.18;;;;;;;;;;6065474;23;20033;-89
2023/02/23 17:54:45;;;;;;;9.55;6.72;;;;;;;;;;6254360;22;20019;-91
2023/02/23 17:57:15;;;;;;;9.30;6.65;;;;;;;;;;6277202;22;20481;-90
2023/02/23 17:59:42;;;;;;;10.75;6.18;;;;;;;;;;6272169;22;20026;-90
2023/02/23 18:02:20;;;;;;;9.70;5.60;;;;;;;;;;6219553;22;20027;-89
2023/02/23 18:52:23;;;;;;;;;;;;;;;;;;;;;
2023/02/23 19:44:33;;;;;;;8.93;6.32;;;;;;;;;;5825395;24;20029;-91
2023/02/23 19:47:16;;;;;;;;;;;;;;;;;;;;;
2023/02/23 19:49:48;;;;;;;7.93;4.70;;;;;;;;;;6046171;23;20415;-91
2023/02/23 19:52:33;;;;;;;;;;;;;;;;;;;;;
2023/02/23 19:55:23;;;;;;;6.53;4.15;;;;;;;;;;6053466;23;20569;-92
2023/02/23 19:57:54;;;;;;;6.90;5.43;;;;;;;;;;6128476;23;20085;-90
2023/02/23 20:00:23;;;;;;;8.38;5.20;;;;;;;;;;6145759;23;20508;-91
2023/02/23 20:02:53;;;;;;;13.40;5.47;;;;;;;;;;6145486;23;20026;-90
2023/02/23 20:05:22;;;;;;;9.55;5.50;;;;;;;;;;6144126;23;20025;-91
2023/02/23 20:07:51;;;;;;;5.35;4.80;;;;;;;;;;6143803;23;20017;-91
2023/02/23 20:10:24;;;;;;;9.18;4.75;;;;;;;;;;6154294;23;20029;-90
2023/02/23 20:12:56;;;;;;;9.88;6.25;;;;;;;;;;6155467;23;20028;-92
2023/02/23 20:15:24;;;;;;;7.78;5.40;;;;;;;;;;6178695;23;20013;-91
2023/02/23 20:17:57;;;;;;;8.77;5.82;;;;;;;;;;6143316;23;20013;-92
2023/02/23 20:20:34;;;;;;;;;;;;;;;;;;;;;
2023/02/23 20:23:11;;;;;;;8.00;5.57;;;;;;;;;;6144396;23;20033;-92
2023/02/23 20:28:52;;;;;;;7.22;6.50;;;;;;;;;;6152077;23;20017;-91
2023/02/23 20:31:40;;;;;;;7.38;5.72;;;;;;;;;;6157059;23;20028;-92
2023/02/23 20:34:32;;;;;;;;;;;;;;;;;;;;;
2023/02/23 20:37:23;;;;;;;13.68;10.05;;;;;;;;;;6145234;23;20017;-92
2023/02/23 20:40:18;;;;;;;8.15;5.75;;;;;;;;;;6155762;23;20488;-92
2023/02/23 20:42:52;;;;;;;8.07;6.20;;;;;;;;;;6144601;23;20428;-92
2023/02/23 20:45:25;;;;;;;10.93;7.95;;;;;;;;;;6154568;23;20386;-91
2023/02/23 20:47:57;;;;;;;18.80;9.68;;;;;;;;;;6147999;23;20024;-92
2023/02/23 20:50:41;;;;;;;11.23;7.50;;;;;;;;;;6145074;23;20020;-92
2023/02/23 20:53:23;;;;;;;9.70;7.95;;;;;;;;;;6143823;23;20018;-92
2023/02/23 20:56:06;;;;;;;11.30;7.22;;;;;;;;;;6155069;23;20025;-91
2023/02/23 21:01:43;;;;;;;11.90;7.43;;;;;;;;;;6184414;23;20012;-88
2023/02/23 21:04:12;;;;;;;7.93;6.78;;;;;;;;;;6155700;23;20025;-88
2023/02/23 21:06:40;;;;;;;9.38;6.85;;;;;;;;;;6178972;23;20472;-88
2023/02/23 21:09:11;;;;;;;8.35;6.45;;;;;;;;;;6155023;23;20381;-89
2023/02/23 21:11:41;;;;;;;10.77;7.07;;;;;;;;;;6181145;23;20020;-90
2023/02/23 21:14:11;;;;;;;8.40;6.30;;;;;;;;;;6154319;23;20017;-90
2023/02/23 21:16:44;;;;;;;10.60;6.55;;;;;;;;;;6181021;23;20024;-90
2023/02/23 21:19:13;;;;;;;10.93;7.05;;;;;;;;;;6156057;23;20032;-88
2023/02/23 21:21:42;;;;;;;10.27;7.47;;;;;;;;;;6155674;23;20024;-89
2023/02/23 21:24:10;;;;;;;10.50;7.40;;;;;;;;;;6155042;23;20021;-87
2023/02/23 21:26:38;;;;;;;8.88;7.82;;;;;;;;;;6179131;23;20021;-89
2023/02/23 21:29:15;;;;;;;8.98;8.07;;;;;;;;;;6154904;23;20021;-90
2023/02/23 21:31:46;;;;;;;13.23;8.02;;;;;;;;;;6179531;23;20021;-90
2023/02/23 21:34:18;;;;;;;9.43;7.38;;;;;;;;;;6154119;23;20021;-88
2023/02/23 21:36:46;;;;;;;10.10;8.17;;;;;;;;;;6154593;23;20028;-90
2023/02/23 21:39:14;;;;;;;9.38;8.07;;;;;;;;;;6156801;23;20021;-89
2023/02/23 21:41:41;;;;;;;8.73;7.80;;;;;;;;;;6162553;23;20021;-89
2023/02/23 21:44:13;;;;;;;11.05;8.88;;;;;;;;;;6163993;23;20017;-89
2023/02/23 21:46:43;;;;;;;17.63;8.02;;;;;;;;;;6168516;23;20025;-89
2023/02/23 21:49:12;;;;;;;10.13;8.27;;;;;;;;;;6167402;23;20027;-90
2023/02/23 21:51:41;;;;;;;12.60;8.88;;;;;;;;;;6164306;23;20032;-89
2023/02/23 21:54:09;;;;;;;9.55;7.22;;;;;;;;;;6192484;23;20024;-89
2023/02/23 21:56:39;;;;;;;11.68;7.95;;;;;;;;;;6191294;23;20017;-90
2023/02/23 21:59:09;;;;;;;9.20;8.23;;;;;;;;;;6189882;23;20036;-89
2023/02/23 22:01:39;;;;;;;13.07;7.88;;;;;;;;;;6201824;23;20324;-88
2023/02/23 22:04:08;;;;;;;11.32;8.57;;;;;;;;;;6166164;23;20016;-89
2023/02/23 22:06:38;;;;;;;10.77;7.55;;;;;;;;;;6166013;23;20028;-89
2023/02/23 22:09:10;;;;;;;9.60;7.05;;;;;;;;;;6188862;23;20359;-89
2023/02/23 22:11:42;;;;;;;;;;;;;;;;;;6163956;23;20031;-89
2023/02/23 22:14:10;;;;;;;11.05;7.93;;;;;;;;;;6163943;23;19916;-90
2023/02/23 22:16:40;;;;;;;9.15;7.90;;;;;;;;;;6188889;23;20016;-89
2023/02/23 22:19:08;;;;;;;6.82;6.13;;;;;;;;;;6165568;23;20023;-89
2023/02/23 22:21:43;;;;;;;8.45;6.30;;;;;;;;;;6202558;23;20021;-89
2023/02/23 22:24:13;;;;;;;10.48;8.00;;;;;;;;;;6227690;23;20013;-89
2023/02/23 22:26:45;;;;;;;11.52;7.90;;;;;;;;;;6168809;23;20498;-90
2023/02/23 22:29:13;;;;;;;7.88;6.95;;;;;;;;;;6190829;23;20016;-90
2023/02/23 22:31:43;;;;;;;8.70;6.88;;;;;;;;;;6199680;23;20027;-88
2023/02/23 22:34:12;;;;;;;10.15;6.40;;;;;;;;;;6192321;23;20017;-89
2023/02/23 22:36:42;;;;;;;13.50;7.00;;;;;;;;;;6193552;23;20023;-91
2023/02/23 22:39:11;;;;;;;12.43;6.13;;;;;;;;;;6192707;23;20009;-90